Nearby METAR Reports

 

KSBP - San Luis Obispo, California, USA
Distance from station: S 14mi, 22km
Updated: Thu, 17-Oct-2019 3:56pm PDT
Clear
Clear
 Wind from NW
Wind: NW 23 mph , 37 km/h, Gust: 29 mph , 46 km/h
Temperature: 66°F , 19°C
Dew Point: 46°F , 8°C
Humidity: 49%
Barometer: 1011.5 hPa
Clouds: Clear
Visibility: 10 miles , 16 km
2019/10/17 22:56 KSBP 172256Z 31020G25KT 10SM CLR 19/08 A2987 RMK AO2 PK WND 32026/2238 SLP114 T01890078 $
KPRB - Paso Robles, California, USA
Distance from station: N 16mi, 26km
Updated: Thu, 17-Oct-2019 3:53pm PDT
Clear
Clear
 Wind from NW
Wind: NW 25 mph , 41 km/h, Gust: 31 mph , 50 km/h
Temperature: 73°F , 23°C
Dew Point: 37°F , 3°C
Humidity: 27%
Barometer: 1011.5 hPa
Clouds: Clear
Visibility: 10 miles , 16 km
2019/10/17 22:53 KPRB 172253Z AUTO 32022G27KT 10SM CLR 23/03 A2987 RMK AO2 PK WND 31027/2253 SLP112 T02330033
 
KSMX - Santa Maria, California, USA
Distance from station: SSE 38mi, 62km
Updated: Thu, 17-Oct-2019 3:51pm PDT
Haze, Clear
Haze, Clear
 Wind from WNW
Wind: WNW 24 mph , 39 km/h
Temperature: 66°F , 19°C
Dew Point: 48°F , 9°C
Humidity: 52%
Barometer: 1010.8 hPa
Summary: Haze
Clouds: Clear
Visibility: 5 miles , 8 km
2019/10/17 22:51 KSMX 172251Z 30021KT 5SM HZ CLR 19/09 A2985 RMK AO2 PK WND 30034/2154 SLP108 T01940089
KVBG - Vandenberg Afb, California, USA
Distance from station: S 48mi, 78km
Updated: Thu, 17-Oct-2019 3:58pm PDT
Few Clouds
Few Clouds
 Wind from N
Wind: N 31 mph , 50 km/h, Gust: 38 mph , 61 km/h
Temperature: 61°F , 16°C
Dew Point: 50°F , 10°C
Humidity: 68%
Barometer: 1011.2 hPa
Clouds: Few Clouds
Visibility: 10 miles , 16 km
Cloud details: Few Clouds 3500 ft
2019/10/17 22:58 KVBG 172258Z 35027G33KT 10SM FEW035 16/10 A2986 RMK AO2A PK WND 35033/53 SLP114 T01620099